Time;durP1;ratioP1;P1;durP2;ratioP2;P2;SDS_P1;SDS_P2;PMS_P1;PMS_P2;Temp;Humidity;BMP_temperature;BMP_pressure;BME280_temperature;BME280_humidity;BME280_pressure;Samples;Min_cycle;Max_cycle;Signal;HPM_P1;HPM_P2
2022/11/03 00:01:50;;;;;;;22.20;12.28;;;;;;;;;;1711813;82;21063;-77
2022/11/03 00:04:17;;;;;;;25.37;10.88;;;;;;;;;;1711453;82;21581;-77
2022/11/03 00:06:45;;;;;;;18.95;11.33;;;;;;;;;;1706218;84;21035;-76
2022/11/03 00:09:11;;;;;;;21.57;12.63;;;;;;;;;;1703624;83;21016;-76
2022/11/03 00:11:39;;;;;;;18.25;11.03;;;;;;;;;;1704459;83;21079;-76
2022/11/03 00:14:05;;;;;;;17.30;10.43;;;;;;;;;;1724499;83;21563;-76
2022/11/03 00:16:32;;;;;;;22.32;12.20;;;;;;;;;;1705031;84;21085;-76
2022/11/03 00:18:58;;;;;;;20.48;11.57;;;;;;;;;;1704670;84;21032;-76
2022/11/03 00:21:24;;;;;;;16.55;10.85;;;;;;;;;;1704526;83;21994;-76
2022/11/03 00:23:52;;;;;;;19.87;11.60;;;;;;;;;;1727127;83;21042;-76
2022/11/03 00:26:22;;;;;;;20.20;11.00;;;;;;;;;;1699253;84;21071;-76
2022/11/03 00:28:50;;;;;;;19.65;9.68;;;;;;;;;;1699068;84;21119;-76
2022/11/03 00:31:20;;;;;;;19.55;10.48;;;;;;;;;;1646307;84;21132;-76
2022/11/03 00:33:46;;;;;;;16.67;9.58;;;;;;;;;;1670674;84;21084;-77
2022/11/03 00:36:13;;;;;;;19.98;10.18;;;;;;;;;;1669326;86;21131;-77
2022/11/03 00:38:39;;;;;;;20.15;11.25;;;;;;;;;;1642245;87;21024;-77
2022/11/03 00:41:06;;;;;;;19.25;10.08;;;;;;;;;;1642384;87;21053;-77
2022/11/03 00:43:32;;;;;;;18.15;9.78;;;;;;;;;;1640785;86;21488;-77
2022/11/03 00:45:58;;;;;;;15.45;10.18;;;;;;;;;;1670559;86;21543;-77
2022/11/03 00:48:33;;;;;;;17.90;9.98;;;;;;;;;;1671005;86;21358;-77
2022/11/03 00:51:06;;;;;;;20.15;11.03;;;;;;;;;;1670875;86;21594;-77
2022/11/03 00:53:43;;;;;;;17.85;10.28;;;;;;;;;;1670567;84;21038;-76
2022/11/03 00:56:10;;;;;;;19.05;9.78;;;;;;;;;;1658952;86;21030;-76
2022/11/03 00:58:37;;;;;;;19.55;11.15;;;;;;;;;;1659807;85;21610;-76
2022/11/03 01:01:04;;;;;;;20.88;11.12;;;;;;;;;;1659124;86;21027;-76
2022/11/03 01:03:31;;;;;;;14.20;9.03;;;;;;;;;;1659633;85;21051;-75
2022/11/03 01:08:43;;;;;;;16.23;9.80;;;;;;;;;;1682332;83;21635;-76
2022/11/03 01:13:59;;;;;;;22.70;12.03;;;;;;;;;;1701080;83;21016;-77
2022/11/03 01:16:25;;;;;;;18.23;10.72;;;;;;;;;;1700737;84;21587;-77
2022/11/03 01:18:52;;;;;;;21.00;11.78;;;;;;;;;;1701699;84;21063;-77
2022/11/03 01:21:18;;;;;;;19.15;11.20;;;;;;;;;;1690838;83;21075;-76
2022/11/03 01:23:45;;;;;;;19.32;11.05;;;;;;;;;;1703854;83;21099;-76
2022/11/03 01:26:12;;;;;;;21.55;11.88;;;;;;;;;;1703307;83;21040;-76
2022/11/03 01:28:39;;;;;;;19.62;10.50;;;;;;;;;;1704204;84;21536;-76
2022/11/03 01:31:06;;;;;;;19.25;10.55;;;;;;;;;;1715068;83;21036;-76
2022/11/03 01:33:33;;;;;;;18.90;10.50;;;;;;;;;;1685861;84;21072;-77
2022/11/03 01:36:00;;;;;;;22.15;11.60;;;;;;;;;;1718338;82;21056;-76
2022/11/03 01:38:29;;;;;;;17.62;10.45;;;;;;;;;;1717063;83;21051;-77
2022/11/03 01:40:54;;;;;;;19.00;10.30;;;;;;;;;;1707889;83;21033;-77
2022/11/03 01:43:21;;;;;;;17.17;9.63;;;;;;;;;;1697253;84;21069;-76
2022/11/03 01:45:50;;;;;;;19.70;11.08;;;;;;;;;;1692788;85;21085;-77
2022/11/03 01:48:16;;;;;;;17.52;9.85;;;;;;;;;;1692756;85;21066;-77
2022/11/03 01:50:42;;;;;;;17.32;10.75;;;;;;;;;;1692709;85;21014;-76
2022/11/03 01:53:08;;;;;;;19.02;11.20;;;;;;;;;;1692923;84;20943;-76
2022/11/03 01:55:38;;;;;;;21.40;12.50;;;;;;;;;;1692789;85;21639;-76
2022/11/03 01:58:06;;;;;;;15.90;10.25;;;;;;;;;;1692675;83;21054;-76
2022/11/03 02:03:29;;;;;;;18.23;11.18;;;;;;;;;;1721644;78;75505;-72
2022/11/03 02:05:56;;;;;;;18.75;11.30;;;;;;;;;;1707292;79;21074;-71
2022/11/03 02:08:43;;;;;;;19.48;11.15;;;;;;;;;;1726366;83;21121;-71
2022/11/03 02:13:59;;;;;;;21.85;12.47;;;;;;;;;;1715883;83;21090;-71
2022/11/03 02:16:25;;;;;;;21.65;11.80;;;;;;;;;;1715794;83;21097;-70
2022/11/03 02:18:52;;;;;;;17.60;10.80;;;;;;;;;;1725171;83;21083;-70
2022/11/03 02:21:25;;;;;;;20.32;11.95;;;;;;;;;;1715109;83;21027;-71
2022/11/03 02:24:02;;;;;;;24.52;12.37;;;;;;;;;;1716079;83;20963;-71
2022/11/03 02:26:28;;;;;;;19.35;11.22;;;;;;;;;;1716245;83;21020;-71
2022/11/03 02:28:54;;;;;;;22.73;11.80;;;;;;;;;;1716343;83;20983;-71
2022/11/03 02:31:28;;;;;;;20.10;12.13;;;;;;;;;;1716490;83;20975;-71
2022/11/03 02:33:56;;;;;;;20.60;10.82;;;;;;;;;;1718520;83;21026;-71
2022/11/03 02:36:32;;;;;;;18.52;10.48;;;;;;;;;;1715565;83;21030;-70
2022/11/03 02:39:01;;;;;;;21.50;11.55;;;;;;;;;;1714436;83;21451;-71
2022/11/03 02:41:27;;;;;;;22.42;11.22;;;;;;;;;;1717332;83;20999;-73
2022/11/03 02:43:54;;;;;;;20.65;10.80;;;;;;;;;;1718298;82;21007;-72
2022/11/03 02:46:20;;;;;;;20.05;10.58;;;;;;;;;;1715660;83;21022;-71
2022/11/03 05:57:44;;;;;;;7.55;5.00;;;;;;;;;;1805321;79;23109;-68
2022/11/03 06:00:12;;;;;;;7.67;4.72;;;;;;;;;;1778578;80;21060;-68
2022/11/03 06:02:39;;;;;;;7.67;4.62;;;;;;;;;;1788776;80;21009;-68
2022/11/03 06:05:11;;;;;;;8.40;5.22;;;;;;;;;;1793816;80;21099;-68
2022/11/03 06:07:37;;;;;;;6.65;4.40;;;;;;;;;;1789817;80;22179;-68
2022/11/03 06:10:04;;;;;;;7.97;4.85;;;;;;;;;;1777344;80;21023;-68
2022/11/03 06:12:31;;;;;;;7.95;5.12;;;;;;;;;;1781932;80;21083;-67
2022/11/03 06:14:58;;;;;;;7.33;4.95;;;;;;;;;;1780182;80;21028;-68
2022/11/03 06:17:27;;;;;;;7.75;4.78;;;;;;;;;;1781575;80;21054;-69
2022/11/03 06:19:55;;;;;;;8.45;5.28;;;;;;;;;;1764969;81;22383;-67
2022/11/03 06:22:23;;;;;;;7.05;4.55;;;;;;;;;;1740977;81;21070;-68
2022/11/03 06:24:50;;;;;;;10.03;5.33;;;;;;;;;;1735387;81;21036;-70
2022/11/03 06:27:20;;;;;;;71.47;38.42;;;;;;;;;;1742288;81;21024;-69
2022/11/03 06:29:48;;;;;;;12.82;8.28;;;;;;;;;;1732171;81;21478;-72
2022/11/03 06:32:14;;;;;;;10.65;6.35;;;;;;;;;;1741328;81;21047;-73
2022/11/03 06:34:48;;;;;;;10.05;6.28;;;;;;;;;;1741528;81;21511;-71
2022/11/03 06:50:01;;;;;;;11.73;6.55;;;;;;;;;;1778795;79;28224;-70
2022/11/03 06:52:28;;;;;;;12.47;6.10;;;;;;;;;;1717644;82;21001;-71
2022/11/03 06:54:56;;;;;;;8.35;6.10;;;;;;;;;;1715956;82;21515;-71
2022/11/03 06:57:22;;;;;;;10.15;5.95;;;;;;;;;;1719695;81;21075;-71
2022/11/03 06:59:49;;;;;;;9.73;5.55;;;;;;;;;;1723285;82;21603;-71
2022/11/03 07:02:23;;;;;;;12.05;6.28;;;;;;;;;;1718006;82;21052;-71
2022/11/03 07:04:51;;;;;;;11.50;10.00;;;;;;;;;;1690681;83;21024;-70
2022/11/03 08:03:08;;;;;;;14.43;7.87;;;;;;;;;;1799301;79;28240;-71
2022/11/03 08:05:36;;;;;;;12.13;6.53;;;;;;;;;;1751232;81;21515;-72
2022/11/03 08:08:02;;;;;;;12.40;6.97;;;;;;;;;;1764575;80;21497;-72
2022/11/03 08:10:29;;;;;;;15.32;8.03;;;;;;;;;;1753438;81;21142;-71
2022/11/03 08:12:57;;;;;;;11.50;6.30;;;;;;;;;;1748334;80;21012;-72
2022/11/03 08:15:23;;;;;;;13.53;7.42;;;;;;;;;;1731463;82;22203;-73
2022/11/03 08:17:50;;;;;;;13.43;6.62;;;;;;;;;;1743204;81;21030;-73
2022/11/03 08:20:16;;;;;;;13.32;6.42;;;;;;;;;;1760255;80;21002;-73
2022/11/03 08:22:42;;;;;;;14.18;7.90;;;;;;;;;;1744189;80;21042;-73
2022/11/03 08:25:08;;;;;;;11.95;6.67;;;;;;;;;;1744612;80;22342;-71
2022/11/03 08:27:36;;;;;;;13.35;7.25;;;;;;;;;;1722622;82;21620;-71
2022/11/03 08:30:02;;;;;;;10.43;6.40;;;;;;;;;;1725442;80;21029;-74
2022/11/03 08:32:28;;;;;;;12.88;7.65;;;;;;;;;;1727995;81;21526;-72
2022/11/03 08:34:55;;;;;;;12.85;7.53;;;;;;;;;;1728944;80;21062;-71
2022/11/03 08:37:21;;;;;;;10.98;7.75;;;;;;;;;;1744773;82;21400;-72
2022/11/03 08:39:47;;;;;;;16.15;7.62;;;;;;;;;;1747514;80;20978;-72
2022/11/03 08:42:14;;;;;;;10.93;6.12;;;;;;;;;;1755569;80;21516;-73
2022/11/03 08:44:40;;;;;;;11.73;7.35;;;;;;;;;;1745046;82;21069;-70
2022/11/03 08:47:06;;;;;;;12.15;6.67;;;;;;;;;;1746492;80;21039;-70
2022/11/03 08:49:32;;;;;;;11.93;6.45;;;;;;;;;;1746393;82;21038;-70
2022/11/03 08:51:59;;;;;;;12.47;6.47;;;;;;;;;;1759607;79;20947;-70
2022/11/03 08:54:25;;;;;;;10.60;6.45;;;;;;;;;;1719787;82;21093;-70
2022/11/03 08:56:51;;;;;;;11.57;6.40;;;;;;;;;;1723478;80;20998;-70
2022/11/03 08:59:17;;;;;;;9.23;5.08;;;;;;;;;;1717990;81;21346;-71
2022/11/03 09:01:45;;;;;;;10.03;5.70;;;;;;;;;;1730967;82;21556;-71
2022/11/03 09:04:14;;;;;;;7.47;5.00;;;;;;;;;;1731261;80;21012;-72
2022/11/03 09:06:40;;;;;;;8.35;5.30;;;;;;;;;;1750808;81;21512;-71
2022/11/03 09:09:06;;;;;;;10.10;5.53;;;;;;;;;;1749393;82;21537;-71
2022/11/03 09:11:33;;;;;;;9.00;5.20;;;;;;;;;;1728597;80;21114;-71
2022/11/03 09:13:59;;;;;;;8.60;5.00;;;;;;;;;;1715970;83;21022;-72
2022/11/03 09:16:25;;;;;;;10.30;5.20;;;;;;;;;;1727083;81;21553;-71
2022/11/03 09:18:53;;;;;;;9.95;4.80;;;;;;;;;;1728503;82;21086;-71
2022/11/03 09:21:19;;;;;;;8.15;5.05;;;;;;;;;;1722781;81;21009;-71
2022/11/03 09:23:44;;;;;;;8.38;4.97;;;;;;;;;;1722490;82;21373;-71
2022/11/03 09:26:11;;;;;;;10.00;5.97;;;;;;;;;;1721199;82;21001;-70
2022/11/03 09:28:37;;;;;;;8.08;4.75;;;;;;;;;;1728974;82;21535;-72
2022/11/03 09:31:03;;;;;;;7.90;4.67;;;;;;;;;;1727839;82;21111;-72
2022/11/03 09:33:29;;;;;;;6.03;4.42;;;;;;;;;;1719269;83;21084;-72
2022/11/03 09:35:57;;;;;;;7.17;4.75;;;;;;;;;;1701845;82;21060;-72
2022/11/03 09:38:24;;;;;;;8.68;4.70;;;;;;;;;;1714048;83;21076;-72
2022/11/03 09:40:52;;;;;;;7.78;4.95;;;;;;;;;;1717205;82;21052;-73
2022/11/03 09:43:18;;;;;;;7.42;4.78;;;;;;;;;;1725904;81;21561;-72
2022/11/03 09:45:46;;;;;;;8.73;4.40;;;;;;;;;;1728416;82;20999;-73
2022/11/03 09:48:12;;;;;;;10.20;5.53;;;;;;;;;;1707246;82;21026;-74
2022/11/03 09:50:39;;;;;;;8.58;4.78;;;;;;;;;;1718739;81;21061;-73
2022/11/03 09:53:05;;;;;;;10.68;5.12;;;;;;;;;;1719565;82;21151;-74
2022/11/03 09:55:32;;;;;;;7.20;4.70;;;;;;;;;;1728152;81;21525;-74
2022/11/03 09:57:59;;;;;;;8.80;5.28;;;;;;;;;;1736196;81;21072;-71
2022/11/03 10:00:26;;;;;;;7.35;4.95;;;;;;;;;;1723492;82;21025;-73
2022/11/03 10:02:52;;;;;;;10.13;5.40;;;;;;;;;;1727628;82;21533;-72
2022/11/03 10:05:19;;;;;;;9.53;5.67;;;;;;;;;;1727333;83;21052;-76
2022/11/03 10:07:46;;;;;;;7.55;4.20;;;;;;;;;;1714495;83;21046;-75
2022/11/03 10:10:17;;;;;;;7.35;3.90;;;;;;;;;;1722150;82;21056;-72
2022/11/03 10:12:44;;;;;;;6.75;4.33;;;;;;;;;;1748852;80;21756;-74
2022/11/03 10:15:17;;;;;;;9.18;4.87;;;;;;;;;;1749303;81;21164;-74
2022/11/03 10:17:44;;;;;;;5.58;3.52;;;;;;;;;;1755424;81;21102;-74
2022/11/03 10:20:10;;;;;;;5.25;3.10;;;;;;;;;;1740518;80;21004;-75
2022/11/03 10:22:37;;;;;;;4.42;2.70;;;;;;;;;;1735338;82;21027;-71
2022/11/03 10:25:22;;;;;;;4.95;2.62;;;;;;;;;;1748085;81;21604;-71
2022/11/03 10:27:48;;;;;;;3.40;2.20;;;;;;;;;;1709680;83;21632;-71
2022/11/03 10:30:14;;;;;;;4.22;2.35;;;;;;;;;;1726870;80;21006;-70
2022/11/03 10:32:40;;;;;;;5.62;2.80;;;;;;;;;;1735637;80;21015;-69
2022/11/03 10:37:56;;;;;;;4.65;2.60;;;;;;;;;;1677429;80;79721;-74
2022/11/03 10:40:31;;;;;;;4.58;2.50;;;;;;;;;;1654384;84;21037;-76
2022/11/03 10:42:57;;;;;;;3.42;2.30;;;;;;;;;;1661775;84;21579;-74
2022/11/03 10:45:23;;;;;;;3.42;2.27;;;;;;;;;;1659166;84;21553;-74
2022/11/03 10:47:59;;;;;;;3.25;2.50;;;;;;;;;;1674276;84;22144;-75
2022/11/03 10:50:26;;;;;;;4.70;2.72;;;;;;;;;;1672269;83;21045;-74
2022/11/03 10:52:52;;;;;;;4.15;2.80;;;;;;;;;;1676927;82;21109;-73
2022/11/03 10:55:18;;;;;;;5.17;2.80;;;;;;;;;;1677067;83;21047;-76
2022/11/03 10:57:45;;;;;;;4.28;2.90;;;;;;;;;;1669060;83;21089;-75
2022/11/03 11:00:16;;;;;;;3.58;2.50;;;;;;;;;;1661584;84;21060;-74
2022/11/03 11:02:42;;;;;;;4.67;2.52;;;;;;;;;;1655986;85;21056;-74
2022/11/03 11:05:10;;;;;;;3.40;2.12;;;;;;;;;;1661219;83;21105;-74
2022/11/03 11:07:38;;;;;;;2.40;1.98;;;;;;;;;;1625499;86;21017;-74
2022/11/03 11:10:06;;;;;;;3.00;2.10;;;;;;;;;;1652508;84;21097;-74
2022/11/03 11:12:33;;;;;;;4.78;2.33;;;;;;;;;;1666232;83;21089;-74
2022/11/03 11:15:00;;;;;;;3.92;2.30;;;;;;;;;;1675111;83;20991;-75
2022/11/03 11:17:38;;;;;;;4.50;2.67;;;;;;;;;;1674387;83;21584;-74
2022/11/03 11:20:22;;;;;;;3.85;2.70;;;;;;;;;;1637867;84;21076;-74
2022/11/03 11:22:49;;;;;;;4.37;2.42;;;;;;;;;;1653531;84;21099;-74
2022/11/03 11:25:16;;;;;;;2.95;2.12;;;;;;;;;;1642190;85;21108;-76
2022/11/03 11:27:46;;;;;;;3.70;2.50;;;;;;;;;;1650913;84;21159;-75
2022/11/03 11:30:19;;;;;;;3.95;2.62;;;;;;;;;;1644717;84;21045;-76
2022/11/03 11:32:49;;;;;;;3.72;2.40;;;;;;;;;;1654219;85;21685;-74
2022/11/03 11:35:23;;;;;;;3.72;2.42;;;;;;;;;;1663381;84;21070;-76
2022/11/03 11:37:49;;;;;;;4.17;2.33;;;;;;;;;;1646445;84;21557;-74
2022/11/03 11:40:24;;;;;;;3.92;2.45;;;;;;;;;;1633756;85;21061;-74
2022/11/03 11:43:04;;;;;;;3.72;2.30;;;;;;;;;;1638568;85;21663;-73
2022/11/03 11:45:49;;;;;;;3.83;2.52;;;;;;;;;;1627030;86;21052;-76
2022/11/03 11:48:16;;;;;;;3.20;2.37;;;;;;;;;;1627265;86;21039;-75
2022/11/03 11:50:42;;;;;;;3.42;2.30;;;;;;;;;;1645323;85;21076;-75
2022/11/03 11:53:10;;;;;;;4.37;2.20;;;;;;;;;;1636589;85;21037;-75
2022/11/03 11:55:38;;;;;;;5.15;2.40;;;;;;;;;;1599575;87;21040;-76
2022/11/03 11:58:05;;;;;;;4.45;2.85;;;;;;;;;;1636690;85;21076;-76
2022/11/03 12:00:32;;;;;;;3.58;2.52;;;;;;;;;;1637871;85;21068;-76
2022/11/03 12:03:00;;;;;;;5.15;2.87;;;;;;;;;;1644520;85;21017;-75
2022/11/03 12:05:28;;;;;;;4.22;2.75;;;;;;;;;;1635791;85;21567;-76
2022/11/03 12:07:54;;;;;;;4.42;2.87;;;;;;;;;;1641837;84;21139;-75
2022/11/03 12:10:21;;;;;;;4.72;3.00;;;;;;;;;;1645468;85;21108;-75
2022/11/03 12:12:47;;;;;;;5.25;3.15;;;;;;;;;;1647311;84;21053;-76
2022/11/03 12:15:32;;;;;;;4.62;2.30;;;;;;;;;;1638150;84;21086;-75
2022/11/03 12:17:58;;;;;;;3.50;2.30;;;;;;;;;;1641138;85;21080;-76
2022/11/03 12:20:35;;;;;;;3.10;2.33;;;;;;;;;;1641869;85;21056;-74
2022/11/03 12:23:03;;;;;;;3.98;2.40;;;;;;;;;;1620900;86;21064;-77
2022/11/03 12:25:33;;;;;;;5.10;2.62;;;;;;;;;;1643786;85;21524;-77
2022/11/03 12:28:00;;;;;;;5.08;2.70;;;;;;;;;;1642126;86;21087;-76
2022/11/03 12:30:26;;;;;;;4.83;2.22;;;;;;;;;;1629214;86;21108;-76
2022/11/03 12:32:52;;;;;;;3.42;2.55;;;;;;;;;;1632041;86;21076;-78
2022/11/03 12:35:18;;;;;;;4.50;2.92;;;;;;;;;;1626274;86;21567;-77
2022/11/03 12:37:45;;;;;;;4.40;2.60;;;;;;;;;;1628321;86;21054;-78
2022/11/03 12:40:12;;;;;;;2.70;2.30;;;;;;;;;;1641001;84;21116;-77
2022/11/03 12:42:38;;;;;;;3.75;2.30;;;;;;;;;;1637421;85;21353;-78
2022/11/03 12:45:06;;;;;;;4.40;2.60;;;;;;;;;;1642259;85;21128;-78
2022/11/03 12:47:32;;;;;;;4.12;2.80;;;;;;;;;;1648800;84;21028;-77
2022/11/03 12:49:58;;;;;;;3.05;2.35;;;;;;;;;;1637185;85;21203;-77
2022/11/03 12:52:25;;;;;;;4.97;2.77;;;;;;;;;;1633392;85;21077;-77
2022/11/03 12:54:51;;;;;;;4.35;2.65;;;;;;;;;;1609276;87;21104;-79
2022/11/03 12:57:17;;;;;;;3.77;2.87;;;;;;;;;;1588442;88;21062;-77
2022/11/03 12:59:43;;;;;;;3.22;2.50;;;;;;;;;;1624035;86;21608;-77
2022/11/03 13:02:10;;;;;;;3.40;2.47;;;;;;;;;;1622732;86;21048;-78
2022/11/03 13:04:38;;;;;;;3.83;2.72;;;;;;;;;;1640266;86;21096;-78
2022/11/03 13:07:04;;;;;;;5.15;2.75;;;;;;;;;;1603340;86;21146;-77
2022/11/03 13:09:31;;;;;;;4.62;3.27;;;;;;;;;;1637726;84;21131;-78
2022/11/03 13:14:42;;;;;;;4.22;3.00;;;;;;;;;;1604180;87;21089;-79
2022/11/03 13:17:08;;;;;;;3.40;2.52;;;;;;;;;;1631375;86;21100;-79
2022/11/03 13:19:34;;;;;;;3.95;2.47;;;;;;;;;;1630703;85;21080;-77
2022/11/03 13:22:00;;;;;;;4.15;2.52;;;;;;;;;;1601561;88;21548;-76
2022/11/03 13:24:26;;;;;;;3.30;2.55;;;;;;;;;;1643036;85;21547;-76
2022/11/03 13:26:52;;;;;;;4.50;2.70;;;;;;;;;;1608884;86;21124;-76
2022/11/03 13:29:19;;;;;;;5.42;2.50;;;;;;;;;;1644072;85;21513;-75
2022/11/03 13:31:45;;;;;;;4.08;3.00;;;;;;;;;;1624893;84;21073;-75
2022/11/03 13:34:11;;;;;;;3.25;2.60;;;;;;;;;;1625267;85;21013;-73
2022/11/03 13:36:37;;;;;;;4.00;2.70;;;;;;;;;;1629560;85;21083;-74
2022/11/03 13:39:03;;;;;;;4.00;2.55;;;;;;;;;;1646255;84;20993;-73
2022/11/03 13:41:29;;;;;;;4.53;2.77;;;;;;;;;;1643501;84;21319;-75
2022/11/03 13:43:55;;;;;;;4.10;2.35;;;;;;;;;;1655959;84;21048;-75
2022/11/03 13:46:21;;;;;;;4.40;2.80;;;;;;;;;;1657880;84;21552;-74
2022/11/03 13:48:48;;;;;;;4.53;2.62;;;;;;;;;;1658669;84;21121;-74
2022/11/03 13:51:16;;;;;;;3.20;2.27;;;;;;;;;;1641571;85;21021;-74
2022/11/03 13:53:42;;;;;;;4.33;2.65;;;;;;;;;;1648168;85;21608;-73
2022/11/03 13:56:08;;;;;;;3.75;2.70;;;;;;;;;;1636630;86;21085;-75
2022/11/03 13:58:34;;;;;;;4.00;2.47;;;;;;;;;;1648135;84;21040;-75
2022/11/03 14:01:00;;;;;;;6.45;3.00;;;;;;;;;;1632629;86;21116;-76
2022/11/03 14:03:27;;;;;;;5.03;3.10;;;;;;;;;;1634651;85;21657;-76
2022/11/03 14:05:53;;;;;;;4.33;3.10;;;;;;;;;;1660263;84;22416;-76
2022/11/03 14:08:19;;;;;;;4.67;3.00;;;;;;;;;;1626835;86;21002;-77
2022/11/03 14:10:45;;;;;;;4.00;2.72;;;;;;;;;;1584953;88;21056;-77
2022/11/03 14:13:14;;;;;;;3.70;2.42;;;;;;;;;;1628195;85;21114;-76
2022/11/03 14:15:41;;;;;;;3.67;2.58;;;;;;;;;;1642142;85;21151;-76
2022/11/03 14:18:07;;;;;;;3.90;2.40;;;;;;;;;;1627764;85;21148;-76
2022/11/03 14:20:33;;;;;;;3.17;2.30;;;;;;;;;;1654223;85;21554;-76
2022/11/03 14:23:00;;;;;;;4.05;2.30;;;;;;;;;;1627405;86;21116;-75
2022/11/03 14:25:26;;;;;;;2.80;2.20;;;;;;;;;;1629304;86;21092;-74
2022/11/03 14:27:52;;;;;;;2.65;2.10;;;;;;;;;;1636749;86;21056;-74
2022/11/03 14:30:18;;;;;;;3.70;2.40;;;;;;;;;;1634651;86;21053;-75
2022/11/03 14:32:44;;;;;;;4.67;2.60;;;;;;;;;;1637816;85;21575;-74
2022/11/03 14:37:58;;;;;;;3.50;2.72;;;;;;;;;;1639463;84;21176;-72
2022/11/03 14:43:10;;;;;;;3.50;2.77;;;;;;;;;;1654440;85;21563;-72
2022/11/03 14:45:37;;;;;;;6.37;3.70;;;;;;;;;;1634690;85;21108;-73
2022/11/03 14:48:04;;;;;;;5.47;3.00;;;;;;;;;;1672771;83;21088;-73
2022/11/03 14:50:30;;;;;;;4.05;2.75;;;;;;;;;;1680202;84;21552;-72
2022/11/03 14:52:57;;;;;;;3.90;2.52;;;;;;;;;;1651885;86;21130;-72
2022/11/03 14:55:23;;;;;;;3.30;2.30;;;;;;;;;;1674093;84;21104;-73
2022/11/03 14:57:49;;;;;;;2.85;2.25;;;;;;;;;;1693206;83;21088;-73
2022/11/03 15:00:15;;;;;;;4.85;2.65;;;;;;;;;;1689407;83;21006;-75
2022/11/03 15:02:42;;;;;;;4.10;2.65;;;;;;;;;;1689444;83;21118;-71
2022/11/03 15:05:42;;;;;;;3.98;2.90;;;;;;;;;;1685426;83;21040;-71
2022/11/03 15:07:37;;;;;;;2.50;2.12;;;;;;;;;;1695738;83;21072;-69
2022/11/03 15:10:03;;;;;;;4.15;2.75;;;;;;;;;;1693596;83;21081;-71
2022/11/03 15:12:29;;;;;;;3.45;2.35;;;;;;;;;;1692295;83;21126;-70
2022/11/03 15:14:56;;;;;;;3.75;2.65;;;;;;;;;;1684768;83;21077;-70
2022/11/03 15:17:22;;;;;;;4.15;3.02;;;;;;;;;;1704560;83;21564;-70
2022/11/03 15:19:48;;;;;;;3.27;2.50;;;;;;;;;;1694315;83;21094;-72
2022/11/03 15:22:14;;;;;;;4.00;2.65;;;;;;;;;;1695866;83;21047;-73
2022/11/03 15:24:40;;;;;;;4.10;2.70;;;;;;;;;;1686866;83;21595;-71
2022/11/03 15:27:06;;;;;;;4.62;2.83;;;;;;;;;;1698035;83;21079;-71
2022/11/03 15:29:32;;;;;;;4.65;3.27;;;;;;;;;;1705219;83;21138;-71
2022/11/03 15:31:59;;;;;;;4.95;3.55;;;;;;;;;;1688813;83;21067;-70
2022/11/03 15:46:18;;;;;;;4.33;3.08;;;;;;;;;;1840380;77;22621;-70
2022/11/03 15:48:47;;;;;;;5.37;3.10;;;;;;;;;;1794109;78;21437;-72
2022/11/03 15:51:13;;;;;;;4.20;3.20;;;;;;;;;;1801989;78;21040;-72
2022/11/03 15:53:42;;;;;;;4.80;3.52;;;;;;;;;;1801561;78;21035;-73
2022/11/03 15:56:09;;;;;;;4.33;2.77;;;;;;;;;;1792059;78;21619;-71
2022/11/03 15:58:36;;;;;;;4.45;3.05;;;;;;;;;;1809531;78;21103;-71
2022/11/03 16:01:02;;;;;;;4.08;3.20;;;;;;;;;;1793494;78;21037;-72
2022/11/03 16:03:28;;;;;;;3.87;3.17;;;;;;;;;;1792437;78;21044;-71
2022/11/03 16:05:54;;;;;;;6.65;3.72;;;;;;;;;;1798589;78;21563;-72
2022/11/03 16:08:21;;;;;;;5.17;3.75;;;;;;;;;;1795671;78;21028;-72
2022/11/03 16:10:46;;;;;;;4.90;3.45;;;;;;;;;;1813874;78;21004;-71
2022/11/03 16:13:13;;;;;;;5.35;3.70;;;;;;;;;;1803123;78;21499;-71
2022/11/03 16:15:40;;;;;;;5.65;4.30;;;;;;;;;;1801897;78;21530;-72
2022/11/03 16:18:06;;;;;;;5.92;3.65;;;;;;;;;;1815839;78;21360;-71
2022/11/03 16:20:32;;;;;;;5.22;3.60;;;;;;;;;;1821225;78;20997;-73
2022/11/03 16:22:58;;;;;;;4.78;3.60;;;;;;;;;;1793634;78;21530;-71
2022/11/03 16:25:24;;;;;;;5.55;3.25;;;;;;;;;;1793486;78;21000;-71
2022/11/03 16:27:51;;;;;;;5.67;3.67;;;;;;;;;;1811400;78;21000;-71
2022/11/03 16:30:17;;;;;;;6.17;3.77;;;;;;;;;;1803230;78;21484;-71
2022/11/03 16:32:44;;;;;;;6.25;3.72;;;;;;;;;;1801111;78;21005;-70
2022/11/03 16:35:10;;;;;;;8.40;4.78;;;;;;;;;;1818419;78;22169;-71
2022/11/03 16:37:36;;;;;;;7.58;5.25;;;;;;;;;;1804395;78;21016;-71
2022/11/03 16:40:03;;;;;;;7.97;5.00;;;;;;;;;;1793865;78;21021;-71
2022/11/03 16:42:29;;;;;;;7.35;4.67;;;;;;;;;;1795604;78;21036;-71
2022/11/03 16:44:55;;;;;;;5.85;3.58;;;;;;;;;;1789840;78;21005;-72
2022/11/03 16:47:21;;;;;;;5.95;4.08;;;;;;;;;;1783039;78;21391;-72
2022/11/03 16:49:48;;;;;;;5.33;3.62;;;;;;;;;;1781930;78;21552;-71
2022/11/03 16:52:14;;;;;;;4.42;3.47;;;;;;;;;;1779501;78;21018;-71
2022/11/03 16:54:40;;;;;;;5.08;3.30;;;;;;;;;;1778877;79;21017;-71
2022/11/03 16:57:06;;;;;;;4.95;3.30;;;;;;;;;;1782878;79;21048;-71
2022/11/03 16:59:33;;;;;;;4.50;2.87;;;;;;;;;;1793316;79;21072;-71
2022/11/03 17:01:59;;;;;;;4.10;2.85;;;;;;;;;;1774117;79;21037;-71
2022/11/03 17:04:25;;;;;;;5.15;3.47;;;;;;;;;;1777097;78;21053;-71
2022/11/03 17:06:53;;;;;;;5.33;3.17;;;;;;;;;;1779578;78;21024;-71
2022/11/03 17:09:19;;;;;;;6.47;3.40;;;;;;;;;;1778129;78;21563;-71
2022/11/03 17:11:47;;;;;;;5.00;3.35;;;;;;;;;;1778144;78;21540;-70
2022/11/03 17:14:13;;;;;;;6.08;3.35;;;;;;;;;;1778944;78;22419;-71
2022/11/03 17:16:45;;;;;;;5.05;3.30;;;;;;;;;;1779009;78;21008;-71
2022/11/03 17:19:11;;;;;;;6.00;3.45;;;;;;;;;;1778924;78;21100;-71
2022/11/03 17:21:39;;;;;;;5.53;3.75;;;;;;;;;;1780765;78;21732;-69
2022/11/03 17:24:06;;;;;;;5.65;3.83;;;;;;;;;;1780718;78;21004;-69
2022/11/03 17:26:34;;;;;;;6.97;3.62;;;;;;;;;;1777202;78;21075;-70
2022/11/03 17:29:00;;;;;;;7.22;3.70;;;;;;;;;;1779050;78;21009;-69
2022/11/03 17:31:26;;;;;;;7.80;3.83;;;;;;;;;;1778193;78;21373;-68
2022/11/03 17:33:53;;;;;;;5.80;3.52;;;;;;;;;;1774699;78;21016;-70
2022/11/03 17:36:19;;;;;;;6.72;3.85;;;;;;;;;;1778740;78;21118;-70
2022/11/03 17:41:34;;;;;;;7.17;4.45;;;;;;;;;;1696941;83;21594;-73
2022/11/03 17:44:01;;;;;;;7.28;4.72;;;;;;;;;;1717284;81;20989;-73
2022/11/03 17:46:27;;;;;;;9.73;5.72;;;;;;;;;;1735450;80;20971;-73
2022/11/03 17:48:53;;;;;;;12.93;5.55;;;;;;;;;;1724132;81;21457;-73
2022/11/03 17:51:19;;;;;;;11.38;5.75;;;;;;;;;;1728973;81;21062;-73
2022/11/03 17:53:45;;;;;;;9.83;6.25;;;;;;;;;;1732382;81;21021;-72
2022/11/03 17:56:13;;;;;;;9.53;5.72;;;;;;;;;;1739028;81;21053;-74
2022/11/03 17:58:42;;;;;;;10.88;6.53;;;;;;;;;;1738230;81;21045;-73
2022/11/03 18:01:08;;;;;;;9.75;5.70;;;;;;;;;;1734924;81;21013;-73
2022/11/03 18:03:35;;;;;;;8.58;5.30;;;;;;;;;;1738661;81;21721;-74
2022/11/03 18:06:02;;;;;;;7.92;5.20;;;;;;;;;;1736583;81;21028;-74
2022/11/03 18:08:29;;;;;;;7.50;4.67;;;;;;;;;;1712001;81;21097;-71
2022/11/03 18:10:56;;;;;;;7.83;4.47;;;;;;;;;;1736502;81;21056;-71
2022/11/03 18:13:30;;;;;;;9.18;5.00;;;;;;;;;;1734712;81;21786;-71
2022/11/03 18:16:01;;;;;;;9.45;5.90;;;;;;;;;;1733563;81;22196;-70
2022/11/03 18:18:29;;;;;;;7.90;5.03;;;;;;;;;;1733363;81;21535;-69
2022/11/03 18:20:56;;;;;;;7.65;4.92;;;;;;;;;;1740030;81;21001;-72
2022/11/03 18:34:49;;;;;;;9.48;5.75;;;;;;;;;;1807259;79;28083;-70
2022/11/03 18:37:16;;;;;;;8.65;5.62;;;;;;;;;;1771708;80;20983;-70
2022/11/03 18:39:43;;;;;;;7.65;5.15;;;;;;;;;;1773794;78;21069;-70
2022/11/03 18:42:13;;;;;;;6.15;4.45;;;;;;;;;;1778082;80;20985;-70
2022/11/03 18:44:40;;;;;;;7.65;4.95;;;;;;;;;;1771011;80;21565;-70
2022/11/03 18:47:06;;;;;;;7.28;5.10;;;;;;;;;;1790315;78;20968;-70
2022/11/03 18:49:32;;;;;;;7.72;4.90;;;;;;;;;;1814131;78;20968;-70
2022/11/03 18:51:59;;;;;;;7.83;4.67;;;;;;;;;;1799245;78;21136;-71
2022/11/03 18:54:27;;;;;;;7.50;5.08;;;;;;;;;;1781393;78;20996;-70
2022/11/03 18:56:53;;;;;;;8.35;5.15;;;;;;;;;;1774974;80;21545;-70
2022/11/03 18:59:24;;;;;;;7.90;5.20;;;;;;;;;;1770746;78;21109;-70
2022/11/03 19:01:50;;;;;;;8.23;4.97;;;;;;;;;;1780274;80;21498;-70
2022/11/03 19:04:17;;;;;;;7.53;4.80;;;;;;;;;;1789248;78;21040;-70
2022/11/03 19:06:44;;;;;;;7.58;4.60;;;;;;;;;;1771402;80;21051;-70
2022/11/03 19:09:15;;;;;;;6.47;4.58;;;;;;;;;;1743847;81;21015;-70
2022/11/03 19:11:41;;;;;;;9.75;5.97;;;;;;;;;;1718681;83;20957;-70
2022/11/03 19:14:11;;;;;;;8.60;6.00;;;;;;;;;;1749256;80;21137;-70
2022/11/03 19:16:38;;;;;;;7.40;4.47;;;;;;;;;;1757572;80;21098;-70
2022/11/03 19:19:06;;;;;;;7.22;5.00;;;;;;;;;;1733602;81;21478;-70
2022/11/03 19:21:34;;;;;;;6.80;4.80;;;;;;;;;;1758168;81;21099;-70
2022/11/03 19:24:00;;;;;;;6.67;4.97;;;;;;;;;;1753989;81;21052;-71
2022/11/03 19:26:28;;;;;;;7.62;5.78;;;;;;;;;;1695128;83;21036;-71
2022/11/03 19:28:59;;;;;;;8.75;6.37;;;;;;;;;;1728812;83;21786;-71
2022/11/03 19:31:27;;;;;;;8.35;6.75;;;;;;;;;;1695473;84;21749;-70
2022/11/03 19:33:53;;;;;;;6.60;5.03;;;;;;;;;;1730221;82;21012;-70
2022/11/03 19:36:20;;;;;;;7.05;5.72;;;;;;;;;;1740265;81;21058;-70
2022/11/03 19:38:46;;;;;;;6.55;4.47;;;;;;;;;;1712116;83;21309;-70
2022/11/03 19:43:59;;;;;;;6.33;4.03;;;;;;;;;;1715205;83;21531;-70
2022/11/03 19:46:25;;;;;;;8.08;6.08;;;;;;;;;;1713263;83;21591;-70
2022/11/03 19:48:51;;;;;;;6.22;4.80;;;;;;;;;;1713881;83;21175;-70